Time;durP1;ratioP1;P1;durP2;ratioP2;P2;SDS_P1;SDS_P2;PMS_P1;PMS_P2;Temp;Humidity;BMP_temperature;BMP_pressure;BME280_temperature;BME280_humidity;BME280_pressure;Samples;Min_cycle;Max_cycle;Signal;HPM_P1;HPM_P2
2023/06/02 00:01:32;;;;;;;3.25;0.80;;;3.50;99.90;;;;;;4951427;28;20145;-67
2023/06/02 00:04:04;;;;;;;3.45;1.17;;;3.50;99.90;;;;;;4953623;28;20136;-69
2023/06/02 00:06:33;;;;;;;1.63;0.90;;;3.50;99.90;;;;;;4947823;28;20141;-69
2023/06/02 00:09:04;;;;;;;3.08;1.70;;;3.50;99.90;;;;;;4951302;28;20065;-70
2023/06/02 00:11:34;;;;;;;1.55;1.05;;;3.50;99.90;;;;;;4950808;28;20784;-70
2023/06/02 00:14:04;;;;;;;2.83;1.02;;;3.50;99.90;;;;;;4955468;28;20138;-67
2023/06/02 00:16:34;;;;;;;6.18;1.05;;;3.50;99.90;;;;;;4950339;28;20093;-68
2023/06/02 00:19:01;;;;;;;1.48;0.85;;;3.50;99.90;;;;;;4953074;28;20054;-68
2023/06/02 00:21:28;;;;;;;6.45;1.23;;;3.50;99.90;;;;;;4950865;28;20248;-71
2023/06/02 00:23:55;;;;;;;1.63;0.73;;;3.50;99.90;;;;;;4952154;28;20066;-70
2023/06/02 00:26:22;;;;;;;1.25;1.00;;;3.50;99.90;;;;;;4948663;28;20054;-73
2023/06/02 00:28:51;;;;;;;3.22;1.10;;;3.50;99.90;;;;;;4949226;28;20708;-76
2023/06/02 00:31:18;;;;;;;3.47;2.13;;;3.50;99.90;;;;;;4948548;28;20165;-73
2023/06/02 00:33:45;;;;;;;3.42;1.08;;;3.50;99.90;;;;;;4964576;28;20054;-64
2023/06/02 00:36:12;;;;;;;4.93;0.98;;;3.50;99.90;;;;;;4951315;28;20054;-74
2023/06/02 00:38:41;;;;;;;6.78;1.52;;;3.50;99.90;;;;;;4965288;28;20120;-68
2023/06/02 00:41:08;;;;;;;2.13;0.82;;;3.50;99.90;;;;;;4948498;28;21448;-70
2023/06/02 00:43:35;;;;;;;2.47;1.23;;;3.40;99.90;;;;;;4953110;28;20180;-67
2023/06/02 00:46:02;;;;;;;3.00;0.93;;;3.50;99.90;;;;;;4952228;28;20536;-67
2023/06/02 00:48:29;;;;;;;2.40;1.35;;;3.50;99.90;;;;;;4952872;28;20085;-69
2023/06/02 00:50:56;;;;;;;4.10;1.92;;;3.50;99.90;;;;;;4950104;28;20058;-71
2023/06/02 00:53:23;;;;;;;7.72;1.45;;;3.50;99.90;;;;;;4954160;28;20134;-64
2023/06/02 00:55:52;;;;;;;3.58;2.10;;;3.50;99.90;;;;;;4954552;28;20081;-69
2023/06/02 00:58:19;;;;;;;4.72;2.50;;;3.50;99.90;;;;;;4950672;28;20461;-64
2023/06/02 01:00:47;;;;;;;3.95;1.08;;;3.60;99.90;;;;;;4953498;28;20542;-72
2023/06/02 01:03:14;;;;;;;4.35;1.23;;;3.60;99.90;;;;;;4949469;28;20054;-72
2023/06/02 01:05:48;;;;;;;5.45;1.10;;;3.70;99.90;;;;;;4951938;28;20082;-66
2023/06/02 01:08:17;;;;;;;2.67;0.90;;;3.70;99.90;;;;;;4949138;28;20177;-76
2023/06/02 01:10:44;;;;;;;1.70;1.08;;;3.80;99.90;;;;;;4952242;28;20063;-71
2023/06/02 01:13:12;;;;;;;5.78;1.30;;;4.00;99.90;;;;;;4949861;28;20094;-68
2023/06/02 01:15:38;;;;;;;2.45;1.00;;;4.20;99.90;;;;;;4962667;28;20148;-74
2023/06/02 01:18:08;;;;;;;1.45;0.90;;;4.30;99.90;;;;;;4948114;28;20165;-69
2023/06/02 01:20:44;;;;;;;3.95;0.93;;;4.50;99.90;;;;;;4946637;28;20057;-66
2023/06/02 01:23:21;;;;;;;7.90;1.63;;;4.90;99.90;;;;;;4950433;28;20157;-70
2023/06/02 01:25:52;;;;;;;4.47;1.20;;;5.60;99.90;;;;;;4961354;28;20058;-70
2023/06/02 01:28:20;;;;;;;3.83;1.60;;;6.30;99.90;;;;;;4946530;28;20061;-69
2023/06/02 01:30:57;;;;;;;2.00;1.02;;;6.90;99.90;;;;;;4962889;28;20082;-77
2023/06/02 01:33:38;;;;;;;3.53;1.58;;;7.10;99.90;;;;;;4950696;28;20061;-60
2023/06/02 01:36:06;;;;;;;5.20;2.08;;;7.50;99.90;;;;;;4955028;28;20063;-70
2023/06/02 01:38:36;;;;;;;3.13;1.48;;;7.80;99.90;;;;;;4952324;28;20294;-71
2023/06/02 01:41:06;;;;;;;1.75;0.95;;;7.90;99.90;;;;;;4949039;28;20054;-69
2023/06/02 01:43:35;;;;;;;1.80;1.05;;;7.90;99.90;;;;;;4949951;28;20520;-67
2023/06/02 01:46:03;;;;;;;2.25;1.25;;;8.10;99.90;;;;;;4948585;28;20984;-64
2023/06/02 01:48:32;;;;;;;3.67;1.42;;;8.20;99.90;;;;;;4948973;28;20050;-70
2023/06/02 01:50:59;;;;;;;6.95;2.38;;;8.40;99.90;;;;;;4948079;28;20144;-70
2023/06/02 01:53:27;;;;;;;4.25;1.55;;;8.50;99.90;;;;;;4949297;28;20542;-63
2023/06/02 01:55:54;;;;;;;2.70;1.10;;;8.60;99.90;;;;;;4963576;28;20142;-71
2023/06/02 01:58:22;;;;;;;3.15;1.58;;;8.60;99.90;;;;;;4951808;28;20065;-65
2023/06/02 02:00:49;;;;;;;4.72;1.52;;;8.70;99.90;;;;;;4966201;28;20085;-62
2023/06/02 02:03:17;;;;;;;2.50;1.60;;;8.70;99.90;;;;;;4949193;28;20059;-68
2023/06/02 02:05:45;;;;;;;1.65;0.80;;;8.70;99.90;;;;;;4948774;28;20047;-71
2023/06/02 02:08:12;;;;;;;2.85;1.20;;;8.70;99.90;;;;;;4951521;28;20077;-64
2023/06/02 02:10:39;;;;;;;1.65;1.02;;;8.70;99.90;;;;;;4949142;28;20060;-66
2023/06/02 02:13:06;;;;;;;4.53;1.77;;;8.70;99.90;;;;;;4953923;28;20085;-65
2023/06/02 02:15:33;;;;;;;3.33;1.45;;;8.80;99.90;;;;;;4949986;28;20520;-69
2023/06/02 02:18:00;;;;;;;2.65;1.40;;;8.80;99.90;;;;;;4950836;28;20066;-74
2023/06/02 02:20:27;;;;;;;1.35;1.00;;;8.80;99.90;;;;;;4945261;28;20077;-65
2023/06/02 02:22:54;;;;;;;2.10;1.65;;;8.90;99.90;;;;;;4948824;28;20165;-64
2023/06/02 02:25:21;;;;;;;3.33;1.10;;;8.90;99.90;;;;;;4949055;28;21460;-69
2023/06/02 02:27:49;;;;;;;3.10;1.25;;;9.00;99.90;;;;;;4948328;28;20762;-70
2023/06/02 02:30:16;;;;;;;3.67;1.75;;;9.00;99.90;;;;;;4956152;28;20074;-61
2023/06/02 02:32:44;;;;;;;4.30;1.25;;;9.00;99.90;;;;;;4968326;28;20051;-74
2023/06/02 02:35:11;;;;;;;6.18;2.72;;;9.00;99.90;;;;;;4953312;28;20047;-70
2023/06/02 02:37:39;;;;;;;5.43;1.75;;;9.00;99.90;;;;;;4967863;28;20058;-66
2023/06/02 02:40:16;;;;;;;2.47;1.48;;;9.00;99.90;;;;;;4969320;28;20054;-71
2023/06/02 02:42:43;;;;;;;2.92;1.80;;;9.00;99.90;;;;;;4968569;28;21345;-68
2023/06/02 02:45:10;;;;;;;2.58;1.67;;;9.00;99.90;;;;;;4956852;28;20051;-71
2023/06/02 02:47:38;;;;;;;2.60;0.95;;;9.00;99.90;;;;;;4971970;28;20137;-62
2023/06/02 02:50:06;;;;;;;8.30;1.77;;;9.00;99.90;;;;;;4952237;28;20070;-63
2023/06/02 02:52:35;;;;;;;1.52;1.38;;;9.00;99.90;;;;;;4953300;28;20058;-73
2023/06/02 02:55:04;;;;;;;2.38;1.35;;;9.10;99.90;;;;;;4955541;28;20460;-73
2023/06/02 02:57:32;;;;;;;3.83;1.45;;;9.20;99.90;;;;;;4965746;28;20459;-62
2023/06/02 02:59:59;;;;;;;2.03;1.60;;;9.20;99.90;;;;;;4968207;28;20138;-64
2023/06/02 03:02:31;;;;;;;4.13;1.60;;;9.30;99.90;;;;;;4980076;28;20050;-66
2023/06/02 03:04:58;;;;;;;2.67;1.60;;;9.30;99.90;;;;;;4965367;28;20054;-60
2023/06/02 03:07:25;;;;;;;5.75;1.80;;;9.30;99.90;;;;;;4972192;28;20043;-64
2023/06/02 03:09:52;;;;;;;6.32;1.95;;;9.30;99.90;;;;;;4982107;28;20523;-68
2023/06/02 03:12:20;;;;;;;4.25;1.35;;;9.30;99.90;;;;;;4966562;28;20055;-66
2023/06/02 03:14:47;;;;;;;3.38;1.90;;;9.30;99.90;;;;;;4971129;28;20155;-64
2023/06/02 03:17:14;;;;;;;3.13;1.42;;;9.30;99.90;;;;;;4978532;28;20082;-64
2023/06/02 03:19:41;;;;;;;3.83;1.38;;;9.30;99.90;;;;;;4984348;28;20050;-63
2023/06/02 03:22:08;;;;;;;4.65;1.20;;;9.30;99.90;;;;;;4969870;28;20081;-63
2023/06/02 03:24:38;;;;;;;2.92;1.45;;;9.30;99.90;;;;;;4966858;28;20098;-63
2023/06/02 03:27:12;;;;;;;3.75;1.20;;;9.40;99.90;;;;;;4969703;28;20499;-68
2023/06/02 03:29:43;;;;;;;3.97;1.10;;;9.40;99.90;;;;;;4966742;28;20055;-63
2023/06/02 03:32:12;;;;;;;4.70;1.20;;;9.40;99.90;;;;;;4967896;28;20102;-67
2023/06/02 03:34:40;;;;;;;4.93;1.00;;;9.30;99.90;;;;;;4967643;28;20141;-63
2023/06/02 03:37:10;;;;;;;1.48;0.75;;;9.30;99.90;;;;;;4967842;28;20163;-64
2023/06/02 03:39:38;;;;;;;1.95;0.65;;;9.30;99.90;;;;;;4967824;28;20081;-63
2023/06/02 03:42:05;;;;;;;2.65;1.02;;;9.30;99.90;;;;;;4964759;28;20109;-77
2023/06/02 03:44:33;;;;;;;1.73;0.70;;;9.30;99.90;;;;;;4975172;28;22916;-63
2023/06/02 03:47:00;;;;;;;4.35;1.10;;;9.30;99.90;;;;;;4963442;28;20047;-61
2023/06/02 03:49:29;;;;;;;1.58;1.00;;;9.30;99.90;;;;;;4958131;28;20924;-75
2023/06/02 03:51:58;;;;;;;3.00;1.40;;;9.30;99.90;;;;;;4962889;28;20113;-65
2023/06/02 03:54:26;;;;;;;6.35;1.60;;;9.30;99.90;;;;;;4959322;28;20054;-68
2023/06/02 03:56:53;;;;;;;3.85;1.60;;;9.30;99.90;;;;;;4960527;28;20583;-67
2023/06/02 03:59:20;;;;;;;1.58;1.27;;;9.30;99.90;;;;;;4977692;28;20069;-61
2023/06/02 04:01:47;;;;;;;4.07;0.98;;;9.30;99.90;;;;;;4964467;28;20137;-61
2023/06/02 04:04:15;;;;;;;8.88;3.03;;;9.30;99.90;;;;;;4977216;28;20055;-74
2023/06/02 04:06:42;;;;;;;2.72;1.10;;;9.30;99.90;;;;;;4961111;28;20054;-63
2023/06/02 04:09:12;;;;;;;10.43;1.48;;;9.20;99.90;;;;;;4962894;28;20054;-68
2023/06/02 04:11:42;;;;;;;3.20;1.00;;;9.20;99.90;;;;;;4970567;28;20102;-64
2023/06/02 04:14:10;;;;;;;2.90;1.25;;;9.20;99.90;;;;;;4959076;28;20054;-71
2023/06/02 04:16:39;;;;;;;2.03;0.70;;;9.10;99.90;;;;;;4977249;28;20086;-63
2023/06/02 04:19:07;;;;;;;2.60;0.70;;;9.10;99.90;;;;;;4943024;28;20059;-71
2023/06/02 04:21:35;;;;;;;1.73;0.88;;;9.00;99.90;;;;;;4978336;28;20058;-65
2023/06/02 04:24:03;;;;;;;2.03;1.00;;;8.90;99.90;;;;;;4962353;28;20424;-61
2023/06/02 04:26:30;;;;;;;1.92;0.93;;;8.90;99.90;;;;;;4962038;28;20581;-64
2023/06/02 04:28:58;;;;;;;1.58;0.52;;;8.80;99.90;;;;;;4949835;28;20142;-74
2023/06/02 04:31:42;;;;;;;1.60;0.82;;;8.80;99.90;;;;;;4980384;28;20074;-61
2023/06/02 04:34:13;;;;;;;2.67;1.65;;;8.80;99.90;;;;;;4951079;28;20094;-70
2023/06/02 04:36:41;;;;;;;1.77;0.90;;;8.90;99.90;;;;;;4961869;28;20405;-62
2023/06/02 04:39:09;;;;;;;6.75;0.93;;;8.80;99.90;;;;;;4960738;28;20059;-73
2023/06/02 04:41:37;;;;;;;1.25;1.00;;;8.90;99.90;;;;;;4962147;28;20046;-69
2023/06/02 04:44:06;;;;;;;2.08;0.80;;;8.90;99.90;;;;;;4961685;28;20542;-64
2023/06/02 04:46:33;;;;;;;7.13;0.63;;;8.90;99.90;;;;;;4976655;28;21015;-64
2023/06/02 04:49:07;;;;;;;4.68;0.60;;;9.00;99.90;;;;;;4967638;28;20054;-63
2023/06/02 04:51:35;;;;;;;1.63;0.73;;;9.00;99.90;;;;;;4978749;28;20090;-67
2023/06/02 04:54:03;;;;;;;3.40;0.60;;;9.10;99.90;;;;;;4969196;28;20063;-69
2023/06/02 04:56:31;;;;;;;5.65;0.93;;;9.10;99.90;;;;;;4966405;28;20059;-63
2023/06/02 04:58:59;;;;;;;4.47;0.60;;;9.20;99.90;;;;;;4972578;28;20234;-75
2023/06/02 05:01:28;;;;;;;3.45;1.10;;;9.20;99.90;;;;;;4965924;28;20158;-63
2023/06/02 05:03:55;;;;;;;1.30;0.60;;;9.20;99.90;;;;;;4977126;28;20058;-66
2023/06/02 05:06:22;;;;;;;1.95;0.80;;;9.30;99.90;;;;;;4978833;28;20559;-66
2023/06/02 05:08:51;;;;;;;1.17;0.60;;;9.30;99.90;;;;;;4969204;28;20109;-65
2023/06/02 05:11:18;;;;;;;0.73;0.30;;;9.40;99.90;;;;;;4963932;28;20051;-64
2023/06/02 05:13:45;;;;;;;2.17;1.42;;;9.40;99.90;;;;;;4964799;28;20435;-62
2023/06/02 05:16:12;;;;;;;1.63;0.70;;;9.40;99.90;;;;;;4980019;28;20069;-66
2023/06/02 05:18:40;;;;;;;5.35;0.93;;;9.50;99.90;;;;;;4965241;28;20093;-66
2023/06/02 05:21:08;;;;;;;1.75;0.43;;;9.50;99.90;;;;;;4966411;28;20050;-64
2023/06/02 05:23:36;;;;;;;4.63;0.60;;;9.60;99.90;;;;;;4969989;28;20043;-61
2023/06/02 05:26:04;;;;;;;1.27;0.50;;;9.70;99.90;;;;;;4984216;28;20047;-66
2023/06/02 05:28:31;;;;;;;1.45;0.57;;;9.80;99.90;;;;;;4966609;28;20101;-63
2023/06/02 05:30:59;;;;;;;1.75;0.55;;;9.90;99.90;;;;;;4983513;28;20058;-67
2023/06/02 05:33:28;;;;;;;5.18;0.88;;;10.00;99.90;;;;;;4984863;28;20050;-61
2023/06/02 05:35:55;;;;;;;0.68;0.30;;;10.00;99.90;;;;;;4961659;28;20055;-62
2023/06/02 05:38:22;;;;;;;1.20;0.35;;;10.10;99.90;;;;;;4966783;28;20058;-66
2023/06/02 05:40:49;;;;;;;3.83;1.02;;;10.10;99.90;;;;;;4968746;28;20051;-61
2023/06/02 05:43:16;;;;;;;0.82;0.30;;;10.10;99.90;;;;;;4963199;28;20066;-60
2023/06/02 05:45:43;;;;;;;4.15;0.80;;;10.10;99.90;;;;;;4981171;28;20793;-65
2023/06/02 05:48:10;;;;;;;0.98;0.40;;;10.10;99.90;;;;;;4980466;28;20062;-65
2023/06/02 05:50:40;;;;;;;4.93;0.65;;;10.00;99.90;;;;;;4977297;28;20724;-61
2023/06/02 05:53:07;;;;;;;5.30;1.10;;;9.90;99.90;;;;;;4965474;28;20061;-61
2023/06/02 05:55:35;;;;;;;2.35;0.70;;;9.70;99.90;;;;;;4966188;28;20055;-61
2023/06/02 05:58:04;;;;;;;2.22;0.70;;;9.50;99.90;;;;;;4981352;28;20146;-65
2023/06/02 06:00:31;;;;;;;2.13;0.40;;;9.40;99.90;;;;;;4966920;28;20818;-63
2023/06/02 06:03:00;;;;;;;1.95;0.32;;;9.30;99.90;;;;;;4959698;28;20078;-64
2023/06/02 06:05:31;;;;;;;1.73;0.40;;;9.30;99.90;;;;;;4978170;28;20047;-61
2023/06/02 06:07:59;;;;;;;4.47;1.23;;;9.10;99.90;;;;;;4978757;28;20405;-61
2023/06/02 06:10:27;;;;;;;0.60;0.30;;;9.00;99.90;;;;;;4976467;28;20066;-66
2023/06/02 06:12:55;;;;;;;2.45;0.43;;;9.00;99.90;;;;;;4980782;28;20058;-69
2023/06/02 06:15:22;;;;;;;1.75;0.40;;;9.10;99.90;;;;;;4965949;28;20509;-62
2023/06/02 06:17:51;;;;;;;1.50;0.40;;;9.10;99.90;;;;;;4962984;28;20042;-68
2023/06/02 06:20:20;;;;;;;1.27;0.40;;;9.10;99.90;;;;;;4961403;28;20151;-63
2023/06/02 06:22:47;;;;;;;0.82;0.25;;;9.20;99.90;;;;;;4984817;28;20417;-68
2023/06/02 06:25:17;;;;;;;0.83;0.50;;;9.20;99.90;;;;;;4979896;28;20125;-67
2023/06/02 06:27:46;;;;;;;0.63;0.20;;;9.30;99.90;;;;;;4957574;28;20046;-72
2023/06/02 06:30:15;;;;;;;2.15;0.30;;;9.30;99.90;;;;;;4978541;28;20145;-66
2023/06/02 06:32:42;;;;;;;0.60;0.22;;;9.40;99.90;;;;;;4981182;28;20053;-65
2023/06/02 06:35:09;;;;;;;0.75;0.30;;;9.50;99.90;;;;;;4962693;28;20064;-61
2023/06/02 06:37:36;;;;;;;3.17;0.60;;;9.50;99.90;;;;;;4961408;28;20468;-67
2023/06/02 06:40:03;;;;;;;0.82;0.20;;;9.50;99.90;;;;;;4964021;28;20162;-60
2023/06/02 06:42:31;;;;;;;1.95;0.30;;;9.50;99.90;;;;;;4977976;28;20162;-64
2023/06/02 06:45:21;;;;;;;0.32;0.20;;;9.50;99.90;;;;;;4957600;28;20062;-63
2023/06/02 06:47:49;;;;;;;0.40;0.40;;;9.40;99.90;;;;;;4979408;28;20493;-70
2023/06/02 06:50:17;;;;;;;2.45;0.47;;;9.40;99.90;;;;;;4958748;28;20134;-63
2023/06/02 06:52:45;;;;;;;2.28;0.28;;;9.40;99.90;;;;;;4967865;28;20054;-62
2023/06/02 06:55:12;;;;;;;0.32;0.30;;;9.40;99.90;;;;;;4965301;28;20085;-70
2023/06/02 06:57:39;;;;;;;3.38;0.50;;;9.50;99.90;;;;;;4964082;28;20074;-62
2023/06/02 07:00:07;;;;;;;1.10;0.45;;;9.60;99.90;;;;;;4962256;28;20115;-62
2023/06/02 07:02:34;;;;;;;0.75;0.25;;;9.60;99.90;;;;;;4960699;28;20061;-62
2023/06/02 07:05:01;;;;;;;0.55;0.25;;;9.70;99.90;;;;;;4960625;28;20144;-69
2023/06/02 07:07:28;;;;;;;1.45;0.20;;;9.70;99.90;;;;;;4962147;28;20053;-66
2023/06/02 07:09:55;;;;;;;1.23;0.47;;;9.80;99.90;;;;;;4962817;28;20168;-61
2023/06/02 07:12:22;;;;;;;2.20;0.43;;;9.60;99.90;;;;;;4961208;28;20484;-59
2023/06/02 07:14:50;;;;;;;0.25;0.20;;;9.50;99.90;;;;;;4961005;28;20437;-66
2023/06/02 07:17:17;;;;;;;5.18;2.47;;;9.60;99.90;;;;;;4966130;28;20094;-63
2023/06/02 07:19:44;;;;;;;0.82;0.32;;;9.70;99.90;;;;;;4976405;28;20074;-61
2023/06/02 07:22:11;;;;;;;0.77;0.45;;;9.70;99.90;;;;;;4966216;28;20751;-62
2023/06/02 07:24:38;;;;;;;0.63;0.30;;;9.80;99.90;;;;;;4963102;28;20057;-62
2023/06/02 07:27:05;;;;;;;0.40;0.40;;;9.90;99.90;;;;;;4966473;28;20050;-62
2023/06/02 07:29:32;;;;;;;2.45;0.38;;;10.00;99.90;;;;;;4962574;28;20051;-61
2023/06/02 07:31:59;;;;;;;0.32;0.30;;;9.90;99.90;;;;;;4963760;28;20521;-61
2023/06/02 07:34:26;;;;;;;0.77;0.22;;;9.90;99.90;;;;;;4959521;28;20097;-64
2023/06/02 07:36:53;;;;;;;2.20;0.10;;;9.90;99.90;;;;;;4963596;28;20054;-63
2023/06/02 07:39:22;;;;;;;0.20;0.20;;;9.90;99.90;;;;;;4962074;28;20050;-66
2023/06/02 07:41:49;;;;;;;0.45;0.30;;;10.00;99.90;;;;;;4964831;28;20097;-65
2023/06/02 07:44:16;;;;;;;0.50;0.15;;;10.10;99.90;;;;;;4961350;28;20125;-64
2023/06/02 07:46:45;;;;;;;0.70;0.50;;;10.20;99.90;;;;;;4964345;28;20129;-60
2023/06/02 07:49:13;;;;;;;1.13;0.50;;;10.20;99.90;;;;;;4961794;28;20098;-70
2023/06/02 07:51:40;;;;;;;3.25;0.25;;;10.30;99.90;;;;;;4961818;28;20050;-69
2023/06/02 07:54:07;;;;;;;1.48;0.35;;;10.40;99.90;;;;;;4965344;28;20054;-73
2023/06/02 07:56:35;;;;;;;1.27;0.60;;;10.40;99.90;;;;;;4963338;28;20042;-67
2023/06/02 07:59:02;;;;;;;0.40;0.20;;;10.40;99.90;;;;;;4963797;28;20129;-65
2023/06/02 08:01:29;;;;;;;0.85;0.20;;;10.40;99.90;;;;;;4963367;28;20460;-60
2023/06/02 08:03:56;;;;;;;0.30;0.22;;;10.30;99.90;;;;;;4962023;28;20097;-65
2023/06/02 08:06:23;;;;;;;3.47;1.02;;;10.30;99.90;;;;;;4959207;28;20051;-61
2023/06/02 08:08:50;;;;;;;0.43;0.10;;;10.20;99.90;;;;;;4964612;28;20114;-63
2023/06/02 08:11:17;;;;;;;0.55;0.30;;;10.30;99.90;;;;;;4962626;28;20059;-63
2023/06/02 08:13:44;;;;;;;3.83;0.32;;;10.30;99.90;;;;;;4964140;28;20058;-61
2023/06/02 08:16:12;;;;;;;0.90;0.50;;;10.40;99.90;;;;;;4962903;28;20047;-64
2023/06/02 08:18:56;;;;;;;6.15;0.90;;;10.40;99.90;;;;;;4963271;28;20494;-70
2023/06/02 08:21:23;;;;;;;1.27;0.32;;;10.40;99.90;;;;;;4962266;28;20154;-61
2023/06/02 08:23:50;;;;;;;0.30;0.17;;;10.40;99.90;;;;;;4968183;28;20115;-66
2023/06/02 08:26:17;;;;;;;1.20;0.40;;;10.50;99.90;;;;;;4963911;28;20082;-68
2023/06/02 08:28:48;;;;;;;0.85;0.30;;;10.50;99.80;;;;;;4980861;28;20066;-61
2023/06/02 08:31:20;;;;;;;1.50;0.50;;;10.40;99.90;;;;;;4965693;28;20575;-70
2023/06/02 08:33:52;;;;;;;1.65;0.30;;;10.40;99.90;;;;;;4978080;28;20386;-70
2023/06/02 08:36:19;;;;;;;1.77;0.30;;;10.40;99.90;;;;;;4963815;28;20556;-70
2023/06/02 08:38:47;;;;;;;4.32;0.57;;;10.50;99.90;;;;;;4966791;28;20087;-68
2023/06/02 08:41:16;;;;;;;0.20;0.20;;;10.60;99.90;;;;;;4966611;28;20464;-65
2023/06/02 08:43:44;;;;;;;2.30;0.40;;;10.60;99.90;;;;;;4966297;28;20576;-65
2023/06/02 08:46:14;;;;;;;0.52;0.10;;;10.80;99.90;;;;;;4967848;28;20055;-62
2023/06/02 08:48:45;;;;;;;1.15;0.30;;;10.80;99.90;;;;;;4965174;28;20047;-62
2023/06/02 08:51:19;;;;;;;2.10;0.45;;;10.80;99.50;;;;;;4965438;28;20491;-69
2023/06/02 08:53:47;;;;;;;3.55;0.43;;;10.70;99.60;;;;;;4967206;28;20090;-62
2023/06/02 08:56:15;;;;;;;1.48;0.40;;;10.70;99.90;;;;;;4964644;28;20066;-64
2023/06/02 08:58:46;;;;;;;4.90;1.10;;;10.70;99.90;;;;;;4966537;28;20049;-64
2023/06/02 09:01:13;;;;;;;;;;;10.70;99.70;;;;;;4966887;28;20157;-68
2023/06/02 09:03:40;;;;;;;1.10;0.20;;;10.70;99.90;;;;;;4965171;28;19930;-65
2023/06/02 09:06:20;;;;;;;1.77;0.45;;;10.70;99.90;;;;;;4963672;28;20059;-65
2023/06/02 09:09:00;;;;;;;0.65;0.30;;;10.80;99.90;;;;;;4965802;28;20055;-65
2023/06/02 09:11:30;;;;;;;0.93;0.20;;;10.70;99.30;;;;;;4965441;28;20055;-65
2023/06/02 09:13:57;;;;;;;1.10;0.25;;;10.70;99.40;;;;;;4967697;28;20074;-64
2023/06/02 09:16:38;;;;;;;0.28;0.20;;;10.80;99.10;;;;;;4964251;28;20365;-59
2023/06/02 09:19:06;;;;;;;0.65;0.52;;;10.70;99.20;;;;;;4966333;28;20042;-61
2023/06/02 09:21:33;;;;;;;1.50;0.40;;;10.70;99.80;;;;;;4964629;28;20896;-69
2023/06/02 09:24:02;;;;;;;0.45;0.28;;;10.70;99.50;;;;;;4980483;28;20055;-60
2023/06/02 09:26:50;;;;;;;0.75;0.20;;;10.80;99.90;;;;;;4964106;28;20113;-73
2023/06/02 09:29:18;;;;;;;1.85;0.30;;;10.90;99.90;;;;;;4962830;28;20675;-68
2023/06/02 09:31:46;;;;;;;3.42;0.65;;;11.00;99.70;;;;;;4966157;28;20055;-62
2023/06/02 09:34:15;;;;;;;2.28;0.60;;;11.00;99.50;;;;;;4964485;28;20561;-66
2023/06/02 09:36:51;;;;;;;1.88;0.57;;;11.00;99.40;;;;;;4964262;28;20445;-60
2023/06/02 09:39:35;;;;;;;0.90;0.20;;;11.00;99.90;;;;;;4965126;28;20055;-69
2023/06/02 09:42:02;;;;;;;0.50;0.47;;;11.10;99.90;;;;;;4965825;28;20066;-60
2023/06/02 09:44:29;;;;;;;0.98;0.20;;;11.10;99.00;;;;;;4963786;28;20499;-65
2023/06/02 09:46:56;;;;;;;0.77;0.38;;;11.20;99.10;;;;;;4968638;28;20058;-63
2023/06/02 09:49:24;;;;;;;0.75;0.35;;;11.20;98.90;;;;;;4959410;28;20043;-63
2023/06/02 09:51:51;;;;;;;2.60;0.70;;;11.30;99.20;;;;;;4965488;28;20129;-63
2023/06/02 09:54:18;;;;;;;1.23;0.40;;;11.30;98.20;;;;;;4962787;28;20117;-63
2023/06/02 09:56:46;;;;;;;0.90;0.10;;;11.30;98.40;;;;;;4965329;28;20140;-64
2023/06/02 09:59:14;;;;;;;0.30;0.30;;;11.30;98.50;;;;;;4966830;28;20059;-64
2023/06/02 10:01:41;;;;;;;0.40;0.20;;;11.30;99.20;;;;;;4968842;28;20496;-63
2023/06/02 10:04:11;;;;;;;0.30;0.30;;;11.40;98.70;;;;;;4964455;28;20141;-71
2023/06/02 10:06:57;;;;;;;4.23;0.90;;;11.40;98.30;;;;;;4962159;28;20062;-66
2023/06/02 10:09:57;;;;;;;1.38;0.40;;;11.40;98.20;;;;;;4963511;28;20656;-63
2023/06/02 10:12:42;;;;;;;;;;;11.40;98.40;;;;;;4962748;28;20054;-65
2023/06/02 10:15:21;;;;;;;3.35;0.20;;;11.40;99.20;;;;;;4964614;28;20431;-66
2023/06/02 10:17:51;;;;;;;1.35;0.43;;;11.40;99.40;;;;;;4960668;28;20562;-66
2023/06/02 10:20:37;;;;;;;2.92;0.30;;;11.60;98.90;;;;;;4962548;28;20098;-71
2023/06/02 10:23:35;;;;;;;7.35;0.88;;;11.60;98.40;;;;;;4966598;28;20062;-60
2023/06/02 10:26:31;;;;;;;1.20;0.50;;;11.60;98.30;;;;;;4965087;28;20146;-67
2023/06/02 10:29:02;;;;;;;0.68;0.38;;;11.60;98.30;;;;;;4965364;28;20173;-70
2023/06/02 10:31:31;;;;;;;;;;;11.70;98.50;;;;;;4962706;28;20051;-66
2023/06/02 10:34:00;;;;;;;1.48;0.40;;;11.90;97.90;;;;;;4966831;28;20008;-66
2023/06/02 10:36:48;;;;;;;0.32;0.20;;;12.10;97.70;;;;;;4960870;28;20062;-67
2023/06/02 10:39:41;;;;;;;0.52;0.20;;;12.20;97.50;;;;;;4962761;28;20137;-63
2023/06/02 10:42:13;;;;;;;0.38;0.15;;;12.20;96.50;;;;;;4963626;28;20480;-63
2023/06/02 10:44:40;;;;;;;0.32;0.20;;;12.10;96.80;;;;;;4962795;28;20047;-62
2023/06/02 10:47:19;;;;;;;0.47;0.47;;;12.10;96.60;;;;;;4965363;28;20082;-64
2023/06/02 10:50:01;;;;;;;0.10;0.10;;;12.10;96.20;;;;;;4963025;28;20117;-67
2023/06/02 10:52:33;;;;;;;1.85;0.30;;;12.00;97.20;;;;;;4975868;28;20043;-63
2023/06/02 10:55:14;;;;;;;5.07;0.30;;;11.90;97.40;;;;;;4966926;28;20070;-69
2023/06/02 10:58:01;;;;;;;2.40;0.40;;;11.80;97.40;;;;;;4966547;28;20061;-63
2023/06/02 11:00:35;;;;;;;0.50;0.10;;;12.00;97.20;;;;;;4966405;28;20054;-68
2023/06/02 11:03:21;;;;;;;0.65;0.17;;;12.00;96.30;;;;;;4966956;28;20055;-67
2023/06/02 11:05:54;;;;;;;1.00;0.20;;;12.10;95.90;;;;;;4959261;28;20046;-63
2023/06/02 11:08:24;;;;;;;3.88;0.22;;;12.00;96.40;;;;;;4967198;28;20094;-65
2023/06/02 11:10:54;;;;;;;1.35;0.20;;;12.00;96.60;;;;;;4968719;28;20055;-70
2023/06/02 11:13:22;;;;;;;;;;;12.20;96.40;;;;;;4970960;28;20121;-64
2023/06/02 11:15:58;;;;;;;0.52;0.17;;;12.00;96.60;;;;;;4967266;28;20277;-64
2023/06/02 11:18:27;;;;;;;0.40;0.25;;;12.10;96.30;;;;;;4966092;28;20145;-65
2023/06/02 11:21:00;;;;;;;0.22;0.20;;;12.20;96.40;;;;;;4967416;28;20050;-64
2023/06/02 11:23:27;;;;;;;1.95;0.25;;;12.40;96.30;;;;;;4961812;28;20575;-67
2023/06/02 11:26:00;;;;;;;0.90;0.17;;;12.40;95.80;;;;;;4948930;28;20047;-66
2023/06/02 11:28:28;;;;;;;0.20;0.10;;;12.60;95.70;;;;;;4959392;28;20112;-66
2023/06/02 11:31:19;;;;;;;1.02;0.75;;;12.70;96.10;;;;;;4958081;28;20133;-73
2023/06/02 11:33:48;;;;;;;0.22;0.20;;;12.80;95.60;;;;;;4961209;28;20465;-61
2023/06/02 11:36:24;;;;;;;2.55;0.28;;;12.80;95.40;;;;;;4965329;28;20047;-63
2023/06/02 11:39:01;;;;;;;1.65;0.20;;;12.60;94.30;;;;;;4963935;28;20155;-69
2023/06/02 11:41:28;;;;;;;0.40;0.30;;;12.70;95.20;;;;;;4966772;28;20089;-66
2023/06/02 11:44:09;;;;;;;1.05;0.55;;;12.50;95.40;;;;;;4970480;28;20050;-64
2023/06/02 11:46:41;;;;;;;0.60;0.40;;;12.50;95.60;;;;;;4967095;28;20051;-66
2023/06/02 11:49:08;;;;;;;0.77;0.50;;;12.80;95.50;;;;;;4970434;28;20055;-67
2023/06/02 11:51:35;;;;;;;0.55;0.30;;;12.70;94.30;;;;;;4965119;28;20074;-64
2023/06/02 11:54:04;;;;;;;1.10;0.30;;;12.50;94.90;;;;;;4969595;28;20058;-72
2023/06/02 11:56:32;;;;;;;1.23;0.25;;;12.60;94.50;;;;;;4961017;28;20160;-61
2023/06/02 11:58:59;;;;;;;0.40;0.25;;;12.60;94.50;;;;;;4971844;28;20540;-62
2023/06/02 12:01:35;;;;;;;0.85;0.13;;;12.80;93.70;;;;;;4965798;28;20059;-65
2023/06/02 12:04:04;;;;;;;0.50;0.50;;;12.80;92.70;;;;;;4983405;28;20755;-69
2023/06/02 12:06:33;;;;;;;1.50;0.55;;;12.80;93.20;;;;;;4965239;28;20476;-70
2023/06/02 12:09:13;;;;;;;1.65;0.30;;;12.80;92.90;;;;;;4972621;28;20140;-65
2023/06/02 12:11:41;;;;;;;1.05;0.20;;;12.90;92.60;;;;;;4966487;28;20097;-69
2023/06/02 12:14:09;;;;;;;6.03;0.75;;;12.90;92.40;;;;;;4973654;28;20049;-65
2023/06/02 12:16:40;;;;;;;1.85;0.45;;;13.00;91.80;;;;;;4968859;28;20495;-67
2023/06/02 12:19:21;;;;;;;1.38;0.68;;;12.60;93.50;;;;;;4973389;28;20054;-68
2023/06/02 12:21:53;;;;;;;1.27;0.50;;;12.80;93.60;;;;;;4965619;28;20146;-61
2023/06/02 12:24:34;;;;;;;0.57;0.35;;;12.90;92.20;;;;;;4970038;28;20125;-64
2023/06/02 12:27:01;;;;;;;0.52;0.10;;;13.20;92.40;;;;;;4974241;28;20405;-69
2023/06/02 12:29:28;;;;;;;1.08;0.20;;;13.40;92.10;;;;;;4971880;28;20043;-73
2023/06/02 12:32:00;;;;;;;1.70;0.50;;;13.20;92.00;;;;;;4970068;28;20059;-66
2023/06/02 12:34:27;;;;;;;1.98;0.30;;;12.90;92.00;;;;;;4965296;28;20046;-71
2023/06/02 12:36:55;;;;;;;0.60;0.30;;;12.70;91.90;;;;;;4966196;28;20555;-66
2023/06/02 12:39:22;;;;;;;3.53;0.30;;;12.50;92.50;;;;;;4967966;28;20063;-61
2023/06/02 12:41:48;;;;;;;2.35;0.32;;;12.40;93.40;;;;;;4969310;28;20070;-69
2023/06/02 12:44:16;;;;;;;0.50;0.20;;;12.20;92.50;;;;;;4966131;28;20054;-67
2023/06/02 12:46:44;;;;;;;0.52;0.20;;;12.10;93.90;;;;;;4969368;28;20536;-63
2023/06/02 12:49:12;;;;;;;0.40;0.40;;;12.10;94.30;;;;;;4970686;28;20109;-75
2023/06/02 12:51:39;;;;;;;0.52;0.28;;;12.50;94.20;;;;;;4972593;28;20130;-60
2023/06/02 12:54:06;;;;;;;0.30;0.10;;;12.50;94.30;;;;;;4971547;28;20058;-64
2023/06/02 12:56:33;;;;;;;2.00;0.32;;;12.50;93.60;;;;;;4970236;28;20532;-62
2023/06/02 12:59:08;;;;;;;1.05;0.45;;;12.70;93.60;;;;;;4969506;28;20063;-63
2023/06/02 13:01:35;;;;;;;1.70;0.28;;;12.70;93.40;;;;;;4967815;28;20062;-67
2023/06/02 13:04:02;;;;;;;2.28;0.30;;;12.90;93.40;;;;;;4967858;28;20120;-61
2023/06/02 13:06:30;;;;;;;0.88;0.25;;;12.60;93.60;;;;;;4966555;28;20746;-64